sensor_id;sensor_type;location;lat;lon;timestamp;pressure;altitude;pressure_sealevel;temperature;humidity
66385;BME280;53426;55.872;37.462;2022-07-29T00:02:25;99267.09;;;16.32;73.95
66385;BME280;53426;55.872;37.462;2022-07-29T00:04:52;99259.44;;;16.21;74.09
66385;BME280;53426;55.872;37.462;2022-07-29T00:07:18;99261.16;;;16.14;74.11
66385;BME280;53426;55.872;37.462;2022-07-29T00:09:44;99267.50;;;16.05;73.39
66385;BME280;53426;55.872;37.462;2022-07-29T00:12:10;99270.47;;;16.10;74.20
66385;BME280;53426;55.872;37.462;2022-07-29T00:14:35;99276.50;;;16.04;74.04
66385;BME280;53426;55.872;37.462;2022-07-29T00:17:01;99277.16;;;16.06;74.40
66385;BME280;53426;55.872;37.462;2022-07-29T00:19:27;99276.69;;;16.03;74.26
66385;BME280;53426;55.872;37.462;2022-07-29T00:21:53;99263.69;;;15.92;74.26
66385;BME280;53426;55.872;37.462;2022-07-29T00:24:18;99277.19;;;15.90;74.06
66385;BME280;53426;55.872;37.462;2022-07-29T00:26:44;99256.53;;;15.76;73.98
66385;BME280;53426;55.872;37.462;2022-07-29T00:29:10;99264.22;;;15.71;73.74
66385;BME280;53426;55.872;37.462;2022-07-29T00:31:35;99282.72;;;15.80;73.55
66385;BME280;53426;55.872;37.462;2022-07-29T00:34:01;99271.53;;;15.77;73.86
66385;BME280;53426;55.872;37.462;2022-07-29T00:36:28;99256.34;;;15.61;73.78
66385;BME280;53426;55.872;37.462;2022-07-29T00:38:54;99265.88;;;15.64;73.78
66385;BME280;53426;55.872;37.462;2022-07-29T00:41:19;99280.22;;;15.71;74.15
66385;BME280;53426;55.872;37.462;2022-07-29T00:43:45;99272.56;;;15.60;75.18
66385;BME280;53426;55.872;37.462;2022-07-29T00:46:12;99284.91;;;15.53;75.72
66385;BME280;53426;55.872;37.462;2022-07-29T00:48:38;99275.84;;;15.37;76.84
66385;BME280;53426;55.872;37.462;2022-07-29T00:51:05;99283.34;;;15.34;77.07
66385;BME280;53426;55.872;37.462;2022-07-29T00:53:31;99270.16;;;15.24;77.43
66385;BME280;53426;55.872;37.462;2022-07-29T00:55:57;99291.84;;;15.29;77.96
66385;BME280;53426;55.872;37.462;2022-07-29T00:58:24;99296.19;;;15.30;78.18
66385;BME280;53426;55.872;37.462;2022-07-29T01:00:50;99296.00;;;15.24;77.64
66385;BME280;53426;55.872;37.462;2022-07-29T01:03:16;99291.50;;;15.16;77.56
66385;BME280;53426;55.872;37.462;2022-07-29T01:05:44;99285.66;;;15.13;78.59
66385;BME280;53426;55.872;37.462;2022-07-29T01:08:11;99304.16;;;15.22;78.08
66385;BME280;53426;55.872;37.462;2022-07-29T01:10:39;99290.63;;;15.07;77.53
66385;BME280;53426;55.872;37.462;2022-07-29T01:13:07;99258.09;;;14.88;78.08
66385;BME280;53426;55.872;37.462;2022-07-29T01:15:43;99305.16;;;15.13;78.01
66385;BME280;53426;55.872;37.462;2022-07-29T01:26:42;99299.63;;;15.06;78.77
66385;BME280;53426;55.872;37.462;2022-07-29T01:34:23;99303.44;;;14.88;79.79
66385;BME280;53426;55.872;37.462;2022-07-29T01:37:10;99304.72;;;14.84;79.76
66385;BME280;53426;55.872;37.462;2022-07-29T01:39:39;99286.56;;;14.79;79.71
66385;BME280;53426;55.872;37.462;2022-07-29T01:42:14;99305.56;;;14.84;79.83
66385;BME280;53426;55.872;37.462;2022-07-29T01:47:41;99283.69;;;14.64;80.23
66385;BME280;53426;55.872;37.462;2022-07-29T01:50:11;99304.66;;;14.68;80.20
66385;BME280;53426;55.872;37.462;2022-07-29T01:52:44;99305.34;;;14.61;80.64
66385;BME280;53426;55.872;37.462;2022-07-29T01:55:14;99308.66;;;14.63;80.84
66385;BME280;53426;55.872;37.462;2022-07-29T01:57:44;99309.19;;;14.67;81.15
66385;BME280;53426;55.872;37.462;2022-07-29T02:00:11;99312.00;;;14.65;80.96
66385;BME280;53426;55.872;37.462;2022-07-29T02:02:41;99313.69;;;14.67;81.11
66385;BME280;53426;55.872;37.462;2022-07-29T02:05:10;99315.81;;;14.63;80.93
66385;BME280;53426;55.872;37.462;2022-07-29T02:07:37;99315.25;;;14.51;80.92
66385;BME280;53426;55.872;37.462;2022-07-29T02:10:06;99319.94;;;14.57;81.28
66385;BME280;53426;55.872;37.462;2022-07-29T02:12:33;99312.44;;;14.53;80.96
66385;BME280;53426;55.872;37.462;2022-07-29T02:15:22;99313.97;;;14.55;80.87
66385;BME280;53426;55.872;37.462;2022-07-29T02:17:57;99303.94;;;14.49;81.10
66385;BME280;53426;55.872;37.462;2022-07-29T02:20:25;99315.78;;;14.55;81.44
66385;BME280;53426;55.872;37.462;2022-07-29T02:22:53;99306.28;;;14.52;80.64
66385;BME280;53426;55.872;37.462;2022-07-29T02:25:20;99320.28;;;14.54;80.39
66385;BME280;53426;55.872;37.462;2022-07-29T02:27:50;99312.13;;;14.56;80.55
66385;BME280;53426;55.872;37.462;2022-07-29T02:30:17;99310.97;;;14.58;80.34
66385;BME280;53426;55.872;37.462;2022-07-29T02:32:44;99325.97;;;14.68;80.13
66385;BME280;53426;55.872;37.462;2022-07-29T02:35:13;99322.19;;;14.70;80.01
66385;BME280;53426;55.872;37.462;2022-07-29T02:37:41;99285.91;;;14.43;79.97
66385;BME280;53426;55.872;37.462;2022-07-29T02:40:11;99324.97;;;14.60;80.06
66385;BME280;53426;55.872;37.462;2022-07-29T02:42:41;99319.63;;;14.60;80.09
66385;BME280;53426;55.872;37.462;2022-07-29T02:45:08;99323.44;;;14.58;80.02
66385;BME280;53426;55.872;37.462;2022-07-29T02:47:40;99325.19;;;14.67;80.08
66385;BME280;53426;55.872;37.462;2022-07-29T02:50:31;99328.22;;;14.80;79.54
66385;BME280;53426;55.872;37.462;2022-07-29T02:53:07;99322.38;;;14.85;78.88
66385;BME280;53426;55.872;37.462;2022-07-29T02:55:40;99306.72;;;14.82;78.94
66385;BME280;53426;55.872;37.462;2022-07-29T02:58:25;99307.09;;;14.87;79.01
66385;BME280;53426;55.872;37.462;2022-07-29T03:00:56;99291.56;;;14.82;78.62
66385;BME280;53426;55.872;37.462;2022-07-29T03:03:26;99317.31;;;15.07;78.48
66385;BME280;53426;55.872;37.462;2022-07-29T03:05:57;99316.31;;;15.17;78.25
66385;BME280;53426;55.872;37.462;2022-07-29T03:08:26;99312.84;;;15.24;77.95
66385;BME280;53426;55.872;37.462;2022-07-29T03:10:53;99310.19;;;15.32;77.69
66385;BME280;53426;55.872;37.462;2022-07-29T03:13:19;99311.88;;;15.41;77.63
66385;BME280;53426;55.872;37.462;2022-07-29T03:15:46;99311.88;;;15.49;76.57
66385;BME280;53426;55.872;37.462;2022-07-29T03:18:12;99317.25;;;15.58;76.40
66385;BME280;53426;55.872;37.462;2022-07-29T03:20:39;99302.88;;;16.07;75.48
66385;BME280;53426;55.872;37.462;2022-07-29T03:23:07;99308.22;;;17.09;72.22
66385;BME280;53426;55.872;37.462;2022-07-29T03:25:33;99320.41;;;17.88;68.95
66385;BME280;53426;55.872;37.462;2022-07-29T03:27:59;99314.22;;;18.69;65.60
66385;BME280;53426;55.872;37.462;2022-07-29T03:30:25;99311.69;;;19.33;63.14
66385;BME280;53426;55.872;37.462;2022-07-29T03:32:52;99311.47;;;19.71;61.28
66385;BME280;53426;55.872;37.462;2022-07-29T03:35:19;99277.31;;;19.64;59.83
66385;BME280;53426;55.872;37.462;2022-07-29T03:37:46;99310.88;;;20.24;58.79
66385;BME280;53426;55.872;37.462;2022-07-29T03:40:22;99309.16;;;20.38;57.89
66385;BME280;53426;55.872;37.462;2022-07-29T03:42:49;99313.22;;;20.62;57.42
66385;BME280;53426;55.872;37.462;2022-07-29T03:45:18;99314.88;;;21.04;56.29
66385;BME280;53426;55.872;37.462;2022-07-29T03:47:51;99310.22;;;21.25;55.84
66385;BME280;53426;55.872;37.462;2022-07-29T03:50:18;99310.88;;;21.47;55.01
66385;BME280;53426;55.872;37.462;2022-07-29T03:52:46;99309.72;;;22.09;52.77
66385;BME280;53426;55.872;37.462;2022-07-29T03:55:13;99323.19;;;22.16;52.89
66385;BME280;53426;55.872;37.462;2022-07-29T03:57:40;99325.41;;;22.65;52.06
66385;BME280;53426;55.872;37.462;2022-07-29T04:00:07;99323.94;;;22.69;51.08
66385;BME280;53426;55.872;37.462;2022-07-29T04:02:33;99335.53;;;22.89;50.71
66385;BME280;53426;55.872;37.462;2022-07-29T04:05:00;99319.03;;;23.17;49.60
66385;BME280;53426;55.872;37.462;2022-07-29T04:07:26;99334.22;;;23.56;48.94
66385;BME280;53426;55.872;37.462;2022-07-29T04:09:52;99325.66;;;24.15;47.15
66385;BME280;53426;55.872;37.462;2022-07-29T04:12:17;99314.22;;;24.13;47.40
66385;BME280;53426;55.872;37.462;2022-07-29T04:14:44;99327.84;;;24.49;46.66
66385;BME280;53426;55.872;37.462;2022-07-29T04:17:10;99314.34;;;24.68;45.92
66385;BME280;53426;55.872;37.462;2022-07-29T04:19:35;99337.19;;;25.45;44.47
66385;BME280;53426;55.872;37.462;2022-07-29T04:22:04;99333.06;;;25.72;43.78
66385;BME280;53426;55.872;37.462;2022-07-29T04:24:30;99323.34;;;26.06;42.87
66385;BME280;53426;55.872;37.462;2022-07-29T04:26:56;99330.94;;;26.27;42.41
66385;BME280;53426;55.872;37.462;2022-07-29T04:29:22;99326.59;;;26.38;41.09
66385;BME280;53426;55.872;37.462;2022-07-29T04:31:50;99327.25;;;26.21;41.20
66385;BME280;53426;55.872;37.462;2022-07-29T04:34:17;99316.88;;;26.65;40.51
66385;BME280;53426;55.872;37.462;2022-07-29T04:36:42;99314.84;;;26.14;41.55
66385;BME280;53426;55.872;37.462;2022-07-29T04:39:08;99334.22;;;26.76;40.76
66385;BME280;53426;55.872;37.462;2022-07-29T04:41:35;99308.75;;;26.42;40.48
66385;BME280;53426;55.872;37.462;2022-07-29T04:44:02;99321.53;;;27.44;39.22
66385;BME280;53426;55.872;37.462;2022-07-29T04:46:31;99312.03;;;27.59;38.31
66385;BME280;53426;55.872;37.462;2022-07-29T04:48:57;99319.78;;;27.67;38.48
66385;BME280;53426;55.872;37.462;2022-07-29T04:51:22;99336.84;;;28.74;36.88
66385;BME280;53426;55.872;37.462;2022-07-29T04:53:48;99335.38;;;29.53;35.57
66385;BME280;53426;55.872;37.462;2022-07-29T04:56:14;99344.63;;;29.52;35.04
66385;BME280;53426;55.872;37.462;2022-07-29T04:58:39;99321.88;;;29.20;35.15
66385;BME280;53426;55.872;37.462;2022-07-29T05:01:05;99327.31;;;29.20;35.55
66385;BME280;53426;55.872;37.462;2022-07-29T05:03:31;99325.31;;;29.32;35.60
66385;BME280;53426;55.872;37.462;2022-07-29T05:10:16;99343.41;;;29.65;34.67
66385;BME280;53426;55.872;37.462;2022-07-29T05:12:41;99299.09;;;29.31;35.04
66385;BME280;53426;55.872;37.462;2022-07-29T05:15:08;99339.16;;;29.79;34.53
66385;BME280;53426;55.872;37.462;2022-07-29T05:17:33;99340.09;;;29.36;35.14
66385;BME280;53426;55.872;37.462;2022-07-29T05:19:59;99335.88;;;29.50;34.17
66385;BME280;53426;55.872;37.462;2022-07-29T05:22:26;99277.31;;;28.88;35.59
66385;BME280;53426;55.872;37.462;2022-07-29T05:24:52;99336.56;;;29.19;35.59
66385;BME280;53426;55.872;37.462;2022-07-29T05:27:18;99328.19;;;29.74;33.99
66385;BME280;53426;55.872;37.462;2022-07-29T05:29:44;99334.19;;;29.44;34.70
66385;BME280;53426;55.872;37.462;2022-07-29T05:32:10;99336.47;;;30.11;34.03
66385;BME280;53426;55.872;37.462;2022-07-29T05:34:36;99333.13;;;30.36;33.52
66385;BME280;53426;55.872;37.462;2022-07-29T05:37:01;99327.31;;;29.42;35.06
66385;BME280;53426;55.872;37.462;2022-07-29T05:39:27;99339.44;;;29.29;35.51
66385;BME280;53426;55.872;37.462;2022-07-29T05:41:53;99322.03;;;30.48;33.11
66385;BME280;53426;55.872;37.462;2022-07-29T05:44:19;99341.59;;;31.29;31.86
66385;BME280;53426;55.872;37.462;2022-07-29T05:46:44;99342.16;;;31.26;31.83
66385;BME280;53426;55.872;37.462;2022-07-29T05:49:10;99300.81;;;31.22;31.18
66385;BME280;53426;55.872;37.462;2022-07-29T05:51:36;99302.34;;;31.95;30.87
66385;BME280;53426;55.872;37.462;2022-07-29T05:54:02;99315.75;;;31.87;30.63
66385;BME280;53426;55.872;37.462;2022-07-29T05:56:32;99328.91;;;32.56;29.56
66385;BME280;53426;55.872;37.462;2022-07-29T05:58:57;99339.06;;;32.45;29.31
66385;BME280;53426;55.872;37.462;2022-07-29T06:01:23;99238.22;;;31.31;30.78
66385;BME280;53426;55.872;37.462;2022-07-29T06:03:50;99277.13;;;31.88;29.26
66385;BME280;53426;55.872;37.462;2022-07-29T06:06:16;99230.56;;;31.93;28.54
66385;BME280;53426;55.872;37.462;2022-07-29T06:08:42;99331.19;;;33.13;27.40
66385;BME280;53426;55.872;37.462;2022-07-29T06:11:07;99322.13;;;33.77;26.83
66385;BME280;53426;55.872;37.462;2022-07-29T06:13:34;99334.63;;;34.27;26.41
66385;BME280;53426;55.872;37.462;2022-07-29T06:16:00;99298.75;;;33.30;27.42
66385;BME280;53426;55.872;37.462;2022-07-29T06:18:25;99308.16;;;33.14;27.17
66385;BME280;53426;55.872;37.462;2022-07-29T06:20:52;99321.19;;;33.47;27.39
66385;BME280;53426;55.872;37.462;2022-07-29T06:23:19;99330.91;;;33.14;27.52
66385;BME280;53426;55.872;37.462;2022-07-29T06:25:45;99333.19;;;33.56;26.82
66385;BME280;53426;55.872;37.462;2022-07-29T06:28:12;99319.84;;;32.50;28.89
66385;BME280;53426;55.872;37.462;2022-07-29T06:30:38;99285.41;;;31.01;30.29
66385;BME280;53426;55.872;37.462;2022-07-29T06:33:07;99322.09;;;32.18;28.37
66385;BME280;53426;55.872;37.462;2022-07-29T06:35:34;99313.09;;;33.17;26.51
66385;BME280;53426;55.872;37.462;2022-07-29T06:38:02;99326.31;;;33.59;25.96
66385;BME280;53426;55.872;37.462;2022-07-29T06:40:27;99329.66;;;32.82;26.66
66385;BME280;53426;55.872;37.462;2022-07-29T06:43:37;99323.44;;;31.95;28.94
66385;BME280;53426;55.872;37.462;2022-07-29T06:46:09;99315.19;;;32.35;27.11
66385;BME280;53426;55.872;37.462;2022-07-29T06:51:58;99311.63;;;32.55;27.04
66385;BME280;53426;55.872;37.462;2022-07-29T06:54:31;99204.16;;;30.34;29.23
66385;BME280;53426;55.872;37.462;2022-07-29T06:56:57;99242.13;;;30.30;29.82
66385;BME280;53426;55.872;37.462;2022-07-29T06:59:24;99294.03;;;31.50;28.38
66385;BME280;53426;55.872;37.462;2022-07-29T07:01:50;99297.78;;;33.06;26.37
66385;BME280;53426;55.872;37.462;2022-07-29T07:04:15;99310.97;;;33.97;24.73
66385;BME280;53426;55.872;37.462;2022-07-29T07:06:41;99323.53;;;31.28;28.47
66385;BME280;53426;55.872;37.462;2022-07-29T07:09:07;99310.00;;;32.39;26.89
66385;BME280;53426;55.872;37.462;2022-07-29T07:11:33;99280.97;;;32.38;26.79
66385;BME280;53426;55.872;37.462;2022-07-29T07:13:59;99299.16;;;32.98;25.85
66385;BME280;53426;55.872;37.462;2022-07-29T07:16:25;99314.41;;;33.30;25.12
66385;BME280;53426;55.872;37.462;2022-07-29T07:18:52;99309.69;;;33.84;24.56
66385;BME280;53426;55.872;37.462;2022-07-29T07:21:18;99295.03;;;33.06;26.04
66385;BME280;53426;55.872;37.462;2022-07-29T07:23:43;99329.50;;;33.81;24.86
66385;BME280;53426;55.872;37.462;2022-07-29T07:26:09;99323.94;;;33.91;24.57
66385;BME280;53426;55.872;37.462;2022-07-29T07:28:36;99319.59;;;31.96;27.34
66385;BME280;53426;55.872;37.462;2022-07-29T07:31:02;99298.75;;;31.60;27.14
66385;BME280;53426;55.872;37.462;2022-07-29T07:33:27;99324.50;;;32.50;26.59
66385;BME280;53426;55.872;37.462;2022-07-29T07:35:55;99330.84;;;33.84;24.91
66385;BME280;53426;55.872;37.462;2022-07-29T07:38:20;99317.38;;;34.79;23.51
66385;BME280;53426;55.872;37.462;2022-07-29T07:40:46;99334.56;;;35.56;22.67
66385;BME280;53426;55.872;37.462;2022-07-29T07:43:12;99312.00;;;33.18;24.78
66385;BME280;53426;55.872;37.462;2022-07-29T07:45:38;99333.84;;;34.21;23.73
66385;BME280;53426;55.872;37.462;2022-07-29T07:48:08;99295.03;;;35.47;22.24
66385;BME280;53426;55.872;37.462;2022-07-29T07:50:36;99329.50;;;36.65;21.15
66385;BME280;53426;55.872;37.462;2022-07-29T07:53:02;99332.47;;;36.96;20.98
66385;BME280;53426;55.872;37.462;2022-07-29T07:55:28;99313.91;;;38.01;19.95
66385;BME280;53426;55.872;37.462;2022-07-29T07:57:54;99329.66;;;37.51;20.05
66385;BME280;53426;55.872;37.462;2022-07-29T08:00:21;99337.72;;;34.78;22.72
66385;BME280;53426;55.872;37.462;2022-07-29T08:02:47;99311.38;;;34.14;23.39
66385;BME280;53426;55.872;37.462;2022-07-29T08:05:13;99341.06;;;34.12;23.45
66385;BME280;53426;55.872;37.462;2022-07-29T08:07:43;99342.56;;;34.86;22.42
66385;BME280;53426;55.872;37.462;2022-07-29T08:10:10;99335.59;;;35.79;21.58
66385;BME280;53426;55.872;37.462;2022-07-29T08:12:36;99326.78;;;36.14;21.78
66385;BME280;53426;55.872;37.462;2022-07-29T08:15:02;99334.53;;;35.13;22.19
66385;BME280;53426;55.872;37.462;2022-07-29T08:17:29;99321.97;;;32.89;24.25
66385;BME280;53426;55.872;37.462;2022-07-29T08:19:55;99328.06;;;31.74;26.70
66385;BME280;53426;55.872;37.462;2022-07-29T08:22:21;99331.25;;;30.42;28.60
66385;BME280;53426;55.872;37.462;2022-07-29T08:24:47;99325.66;;;32.28;25.58
66385;BME280;53426;55.872;37.462;2022-07-29T08:27:18;99341.13;;;34.94;23.14
66385;BME280;53426;55.872;37.462;2022-07-29T08:29:46;99308.88;;;36.17;21.69
66385;BME280;53426;55.872;37.462;2022-07-29T08:32:11;99337.59;;;37.30;20.02
66385;BME280;53426;55.872;37.462;2022-07-29T08:34:37;99320.41;;;36.78;20.91
66385;BME280;53426;55.872;37.462;2022-07-29T08:37:03;99339.69;;;34.43;23.38
66385;BME280;53426;55.872;37.462;2022-07-29T08:39:29;99325.63;;;32.44;24.86
66385;BME280;53426;55.872;37.462;2022-07-29T08:41:55;99313.47;;;30.76;27.14
66385;BME280;53426;55.872;37.462;2022-07-29T08:44:21;99310.59;;;31.03;27.43
66385;BME280;53426;55.872;37.462;2022-07-29T08:46:49;99335.84;;;33.28;24.61
66385;BME280;53426;55.872;37.462;2022-07-29T08:49:15;99315.75;;;34.20;22.88
66385;BME280;53426;55.872;37.462;2022-07-29T08:51:41;99340.72;;;35.48;21.89
66385;BME280;53426;55.872;37.462;2022-07-29T08:54:09;99329.00;;;36.63;20.55
66385;BME280;53426;55.872;37.462;2022-07-29T08:56:36;99333.47;;;37.55;19.18
66385;BME280;53426;55.872;37.462;2022-07-29T08:59:05;99330.38;;;38.37;18.20
66385;BME280;53426;55.872;37.462;2022-07-29T09:01:33;99299.63;;;38.61;17.90
66385;BME280;53426;55.872;37.462;2022-07-29T09:04:01;99329.78;;;38.18;18.11
66385;BME280;53426;55.872;37.462;2022-07-29T09:06:31;99318.78;;;38.04;18.19
66385;BME280;53426;55.872;37.462;2022-07-29T09:08:59;99330.78;;;35.89;20.04
66385;BME280;53426;55.872;37.462;2022-07-29T09:11:25;99266.94;;;33.29;22.00
66385;BME280;53426;55.872;37.462;2022-07-29T09:13:51;99308.81;;;32.80;23.67
66385;BME280;53426;55.872;37.462;2022-07-29T09:16:17;99323.03;;;34.35;23.09
66385;BME280;53426;55.872;37.462;2022-07-29T09:18:44;99333.72;;;35.37;21.12
66385;BME280;53426;55.872;37.462;2022-07-29T09:21:13;99332.47;;;36.04;20.17
66385;BME280;53426;55.872;37.462;2022-07-29T09:24:09;99342.13;;;37.12;19.73
66385;BME280;53426;55.872;37.462;2022-07-29T09:26:38;99331.75;;;37.81;18.95
66385;BME280;53426;55.872;37.462;2022-07-29T09:31:38;99326.03;;;37.78;18.64
66385;BME280;53426;55.872;37.462;2022-07-29T09:34:05;99330.22;;;38.11;17.92
66385;BME280;53426;55.872;37.462;2022-07-29T09:36:38;99314.00;;;39.19;17.37
66385;BME280;53426;55.872;37.462;2022-07-29T09:39:35;99328.56;;;39.51;17.73
66385;BME280;53426;55.872;37.462;2022-07-29T09:42:05;99331.69;;;39.58;18.17
66385;BME280;53426;55.872;37.462;2022-07-29T09:47:11;99326.97;;;35.85;20.53
66385;BME280;53426;55.872;37.462;2022-07-29T09:52:17;99334.47;;;35.23;21.12
66385;BME280;53426;55.872;37.462;2022-07-29T09:54:43;99329.19;;;36.21;20.03
66385;BME280;53426;55.872;37.462;2022-07-29T09:57:25;99334.75;;;37.71;19.75
66385;BME280;53426;55.872;37.462;2022-07-29T10:00:12;99343.66;;;38.04;18.95
66385;BME280;53426;55.872;37.462;2022-07-29T10:02:41;99336.50;;;37.67;19.74
66385;BME280;53426;55.872;37.462;2022-07-29T10:05:22;99341.94;;;39.01;18.76
66385;BME280;53426;55.872;37.462;2022-07-29T10:07:49;99340.00;;;35.98;20.40
66385;BME280;53426;55.872;37.462;2022-07-29T10:10:33;99338.59;;;34.11;21.27
66385;BME280;53426;55.872;37.462;2022-07-29T10:13:01;99337.78;;;33.12;21.58
66385;BME280;53426;55.872;37.462;2022-07-29T10:15:30;99329.09;;;32.90;22.54
66385;BME280;53426;55.872;37.462;2022-07-29T10:17:59;99337.91;;;33.95;21.32
66385;BME280;53426;55.872;37.462;2022-07-29T10:20:26;99343.41;;;35.90;20.07
66385;BME280;53426;55.872;37.462;2022-07-29T10:22:53;99341.28;;;35.69;20.49
66385;BME280;53426;55.872;37.462;2022-07-29T10:25:21;99305.88;;;35.57;21.24
66385;BME280;53426;55.872;37.462;2022-07-29T10:27:48;99333.72;;;37.04;19.44
66385;BME280;53426;55.872;37.462;2022-07-29T10:30:15;99336.16;;;37.82;18.57
66385;BME280;53426;55.872;37.462;2022-07-29T10:44:21;99306.41;;;33.33;22.07
66385;BME280;53426;55.872;37.462;2022-07-29T10:46:48;99324.25;;;31.95;24.30
66385;BME280;53426;55.872;37.462;2022-07-29T10:49:17;99329.03;;;31.33;26.27
66385;BME280;53426;55.872;37.462;2022-07-29T10:52:01;99319.97;;;30.65;26.85
66385;BME280;53426;55.872;37.462;2022-07-29T10:57:11;99327.31;;;29.42;27.55
66385;BME280;53426;55.872;37.462;2022-07-29T10:59:38;99326.31;;;28.83;28.58
66385;BME280;53426;55.872;37.462;2022-07-29T11:07:29;99330.31;;;27.92;30.96
66385;BME280;53426;55.872;37.462;2022-07-29T11:15:16;99325.44;;;27.09;32.60
66385;BME280;53426;55.872;37.462;2022-07-29T11:26:18;99334.13;;;26.94;32.88
66385;BME280;53426;55.872;37.462;2022-07-29T11:31:31;99302.06;;;27.08;33.50
66385;BME280;53426;55.872;37.462;2022-07-29T11:34:29;99302.94;;;27.25;32.60
66385;BME280;53426;55.872;37.462;2022-07-29T11:39:48;99325.25;;;26.75;33.84
66385;BME280;53426;55.872;37.462;2022-07-29T11:45:07;99331.19;;;26.60;34.00
66385;BME280;53426;55.872;37.462;2022-07-29T11:50:12;99335.56;;;26.50;35.41
66385;BME280;53426;55.872;37.462;2022-07-29T11:52:46;99335.06;;;26.41;34.58
66385;BME280;53426;55.872;37.462;2022-07-29T11:55:20;99337.66;;;26.59;33.57
66385;BME280;53426;55.872;37.462;2022-07-29T11:57:54;99322.31;;;26.65;34.32
66385;BME280;53426;55.872;37.462;2022-07-29T12:00:41;99328.69;;;26.82;33.80
66385;BME280;53426;55.872;37.462;2022-07-29T12:03:11;99299.88;;;26.58;33.75
66385;BME280;53426;55.872;37.462;2022-07-29T12:05:42;99313.78;;;26.73;33.49
66385;BME280;53426;55.872;37.462;2022-07-29T12:08:12;99326.94;;;26.53;33.25
66385;BME280;53426;55.872;37.462;2022-07-29T12:10:39;99332.47;;;26.58;33.82
66385;BME280;53426;55.872;37.462;2022-07-29T12:13:05;99315.00;;;26.65;34.37
66385;BME280;53426;55.872;37.462;2022-07-29T12:15:32;99314.56;;;26.45;34.45
66385;BME280;53426;55.872;37.462;2022-07-29T12:17:57;99312.50;;;26.06;34.12
66385;BME280;53426;55.872;37.462;2022-07-29T12:20:26;99295.84;;;25.91;33.36
66385;BME280;53426;55.872;37.462;2022-07-29T12:23:10;99281.91;;;25.87;33.76
66385;BME280;53426;55.872;37.462;2022-07-29T12:25:39;99264.69;;;25.93;33.66
66385;BME280;53426;55.872;37.462;2022-07-29T12:28:07;99296.19;;;25.94;33.89
66385;BME280;53426;55.872;37.462;2022-07-29T12:30:52;99293.09;;;25.79;34.30
66385;BME280;53426;55.872;37.462;2022-07-29T12:33:23;99311.16;;;25.85;35.89
66385;BME280;53426;55.872;37.462;2022-07-29T12:35:51;99299.84;;;25.88;34.40
66385;BME280;53426;55.872;37.462;2022-07-29T12:38:19;99305.72;;;25.97;34.91
66385;BME280;53426;55.872;37.462;2022-07-29T12:40:46;99303.91;;;26.32;35.01
66385;BME280;53426;55.872;37.462;2022-07-29T12:43:15;99314.78;;;26.32;34.20
66385;BME280;53426;55.872;37.462;2022-07-29T12:45:48;99303.81;;;26.27;34.26
66385;BME280;53426;55.872;37.462;2022-07-29T12:48:16;99311.84;;;26.45;34.59
66385;BME280;53426;55.872;37.462;2022-07-29T12:50:56;99305.69;;;26.50;34.28
66385;BME280;53426;55.872;37.462;2022-07-29T12:53:23;99272.63;;;26.30;34.30
66385;BME280;53426;55.872;37.462;2022-07-29T12:55:51;99302.38;;;26.48;33.69
66385;BME280;53426;55.872;37.462;2022-07-29T12:58:41;99306.28;;;26.40;34.08
66385;BME280;53426;55.872;37.462;2022-07-29T13:01:15;99306.75;;;26.26;34.65
66385;BME280;53426;55.872;37.462;2022-07-29T13:03:54;99314.19;;;26.30;34.05
66385;BME280;53426;55.872;37.462;2022-07-29T13:06:40;99304.88;;;26.38;34.40
66385;BME280;53426;55.872;37.462;2022-07-29T13:09:12;99304.63;;;26.39;33.99
66385;BME280;53426;55.872;37.462;2022-07-29T13:11:50;99302.00;;;26.21;34.44
66385;BME280;53426;55.872;37.462;2022-07-29T13:14:39;99298.94;;;26.17;34.81
66385;BME280;53426;55.872;37.462;2022-07-29T13:17:08;99276.47;;;25.87;34.37
66385;BME280;53426;55.872;37.462;2022-07-29T13:19:45;99303.56;;;25.64;34.74
66385;BME280;53426;55.872;37.462;2022-07-29T13:22:16;99313.78;;;25.32;35.49
66385;BME280;53426;55.872;37.462;2022-07-29T13:24:54;99311.00;;;25.20;35.38
66385;BME280;53426;55.872;37.462;2022-07-29T13:27:22;99314.16;;;25.35;35.07
66385;BME280;53426;55.872;37.462;2022-07-29T13:29:49;99294.03;;;25.43;35.07
66385;BME280;53426;55.872;37.462;2022-07-29T13:32:22;99265.81;;;25.32;35.06
66385;BME280;53426;55.872;37.462;2022-07-29T13:34:48;99294.91;;;25.25;36.14
66385;BME280;53426;55.872;37.462;2022-07-29T13:37:14;99315.19;;;25.05;35.86
66385;BME280;53426;55.872;37.462;2022-07-29T13:39:40;99303.38;;;24.81;35.88
66385;BME280;53426;55.872;37.462;2022-07-29T13:42:07;99298.03;;;24.74;36.30
66385;BME280;53426;55.872;37.462;2022-07-29T13:44:34;99303.00;;;24.59;36.34
66385;BME280;53426;55.872;37.462;2022-07-29T13:47:00;99293.75;;;24.48;37.04
66385;BME280;53426;55.872;37.462;2022-07-29T13:49:26;99305.78;;;24.52;37.29
66385;BME280;53426;55.872;37.462;2022-07-29T13:51:53;99302.91;;;24.47;37.26
66385;BME280;53426;55.872;37.462;2022-07-29T13:54:19;99303.97;;;24.65;36.68
66385;BME280;53426;55.872;37.462;2022-07-29T13:56:45;99309.97;;;24.85;36.23
66385;BME280;53426;55.872;37.462;2022-07-29T13:59:11;99309.31;;;25.08;36.41
66385;BME280;53426;55.872;37.462;2022-07-29T14:01:39;99294.19;;;25.00;36.77
66385;BME280;53426;55.872;37.462;2022-07-29T14:04:07;99297.03;;;25.23;36.54
66385;BME280;53426;55.872;37.462;2022-07-29T14:06:33;99304.66;;;25.15;35.24
66385;BME280;53426;55.872;37.462;2022-07-29T14:09:00;99295.78;;;24.89;36.02
66385;BME280;53426;55.872;37.462;2022-07-29T14:11:26;99305.31;;;24.55;36.05
66385;BME280;53426;55.872;37.462;2022-07-29T14:13:53;99288.34;;;24.24;36.96
66385;BME280;53426;55.872;37.462;2022-07-29T14:16:18;99291.22;;;24.04;37.34